Flight Track Log - Related Links

Times and Time Zones

All times are in EDT time to prevent confusion due to time zone crossing. See the EJA941 flight status page for this flight to view local times or setup timezone preferences in your user account.


Time Position Orientation Groundspeed Altitude Reporting Facility
EDT Latitude Longitude Course Direction KTS MPH feet Rate Location/Type
Wed 09:23:21 PM 30.5753 -96.3606 226° Southwest 141 162 900  Level Houston Center
Wed 09:24:00 PM 30.5561 -96.3839 226° Southwest 218 251 3,500 3,743 Climbing Houston Center
Wed 09:25:02 PM 30.6200 -96.4036 345° North 270 311 7,200 2,732 Climbing Houston Center
Wed 09:26:03 PM 30.7028 -96.3936 North 292 336 9,100 2,508 Climbing Houston Center
Wed 09:27:04 PM 30.7914 -96.3839 North 310 357 12,300 2,410 Climbing Houston Center
Wed 09:28:05 PM 30.9028 -96.3697 North 385 443 14,000 836 Climbing Houston Center
Wed 09:29:06 PM 31.0214 -96.3564 North 416 479 14,000 49 Level Houston Center
Wed 09:30:07 PM 31.1442 -96.3419 North 433 498 14,100 49 Climbing Houston Center
Wed 09:31:08 PM 31.2661 -96.3272 North 438 504 14,100 -49 Level Houston Center
Wed 09:32:09 PM 31.3864 -96.3128 North 433 498 14,000 -49 Descending Houston Center
Wed 09:33:10 PM 31.5089 -96.3014 North 436 502 14,000 49 Level Houston Center
Wed 09:34:12 PM 31.6294 -96.2894 North 434 499 14,100 49 Climbing Houston Center
Wed 09:35:13 PM 31.7506 -96.2733 North 433 498 14,100 -49 Level Houston Center
Wed 09:36:14 PM 31.8711 -96.2725 360° North 431 496 14,000  Descending Houston Center
Wed 09:37:15 PM 31.9919 -96.2944 351° North 433 498 14,100  Climbing Houston Center
Wed 09:38:16 PM 32.1114 -96.3150 352° North 430 495 14,000 -639 Descending Houston Center
Wed 09:39:17 PM 32.2478 -96.3369 352° North 422 486 12,800 -1,513 Descending Houston Center
Wed 09:40:15 PM 32.3333 -96.3500 353° North 348 400 11,000 -1,676 Descending Dallas / Fort Worth TRACON
Wed 09:41:33 PM 32.4492 -96.3794 348° North 319 367 9,000 -1,270 Descending Fort Worth Center
Wed 09:42:32 PM 32.5142 -96.4181 333° Northwest 290 334 8,100 -1,300 Descending Fort Worth Center
Wed 09:43:33 PM 32.5919 -96.4642 333° Northwest 285 328 6,400 -1,339 Descending Fort Worth Center
Wed 09:44:33 PM 32.6569 -96.5028 333° Northwest 285 328 5,400 -700 Descending Fort Worth Center
Wed 09:45:33 PM 32.7219 -96.5639 322° Northwest 285 328 5,000 -202 Descending Fort Worth Center
Wed 09:46:32 PM 32.7744 -96.6178 319° Northwest 273 314 5,000 59 Level Fort Worth Center
Wed 09:47:15 PM 32.8167 -96.6667 316° Northwest 282 325 5,100 -250 Climbing Dallas / Fort Worth TRACON
Wed 09:48:08 PM 32.8667 -96.7167 320° Northwest 244 281 4,600 -912 Descending Dallas / Fort Worth TRACON
Wed 09:49:20 PM 32.9167 -96.8000 306° West 239 275 3,200 -812 Descending Dallas / Fort Worth TRACON
Wed 09:50:21 PM 32.9500 -96.8500 308° West 185 213 2,800 -591 Descending Dallas / Fort Worth TRACON
Wed 09:51:32 PM 32.9167 -96.9000 232° Southwest 131 151 1,900 -756 Descending Dallas / Fort Worth TRACON
Wed 09:52:20 PM 32.8833 -96.8833 157° South 116 133 1,300 -750 Descending Dallas / Fort Worth TRACON

Login

Don't have an account? Register now (free) for customized features, flight alerts, and more!